Time;durP1;ratioP1;P1;durP2;ratioP2;P2;SDS_P1;SDS_P2;PMS_P1;PMS_P2;Temp;Humidity;BMP_temperature;BMP_pressure;BME280_temperature;BME280_humidity;BME280_pressure;Samples;Min_cycle;Max_cycle;Signal;HPM_P1;HPM_P2
2022/06/09 00:01:50;;;;;;;;;;;;;;;;;;5088188;28;20003;-44
2022/06/09 00:04:16;;;;;;;;;;;;;;;;;;5088234;28;20331;-43
2022/06/09 00:06:43;;;;;;;;;;;;;;;;;;5089190;28;19910;-44
2022/06/09 00:09:09;;;;;;;;;;;;;;;;;;5087934;28;19909;-43
2022/06/09 00:11:34;;;;;;;;;;;;;;;;;;5087745;28;19908;-44
2022/06/09 00:13:59;;;;;;;;;;;;;;;;;;5087986;28;19908;-43
2022/06/09 00:16:26;;;;;;;;;;;;;;;;;;5089162;28;20312;-43
2022/06/09 00:18:52;;;;;;;;;;;;;;;;;;5088814;28;19947;-44
2022/06/09 00:21:21;;;;;;;;;;;;;;;;;;5088408;28;19956;-44
2022/06/09 00:23:46;;;;;;;;;;;;;;;;;;5087851;28;19912;-45
2022/06/09 00:26:14;;;;;;;;;;;;;;;;;;5088284;28;19908;-44
2022/06/09 00:28:39;;;;;;;;;;;;;;;;;;5088492;28;20110;-44
2022/06/09 00:31:04;;;;;;;;;;;;;;;;;;5088235;28;19934;-43
2022/06/09 00:33:29;;;;;;;;;;;;;;;;;;5087402;28;19928;-43
2022/06/09 00:35:56;;;;;;;;;;;;;;;;;;5087507;28;19916;-44
2022/06/09 00:38:21;;;;;;;;;;;;;;;;;;5088389;28;19912;-43
2022/06/09 00:40:50;;;;;;;;;;;;;;;;;;5088308;28;19961;-45
2022/06/09 00:43:16;;;;;;;;;;;;;;;;;;5087566;28;19909;-43
2022/06/09 00:45:42;;;;;;;;;;;;;;;;;;5087698;28;19919;-44
2022/06/09 00:48:07;;;;;;;;;;;;;;;;;;5087601;28;19916;-43
2022/06/09 00:50:34;;;;;;;;;;;;;;;;;;5088743;28;19916;-44
2022/06/09 00:53:00;;;;;;;;;;;;;;;;;;5087693;28;19908;-43
2022/06/09 00:55:25;;;;;;;;;;;;;;;;;;5087827;28;19919;-44
2022/06/09 00:57:53;;;;;;;;;;;;;;;;;;5087180;28;19908;-43
2022/06/09 01:00:21;;;;;;;;;;;;;;;;;;5088610;28;19953;-43
2022/06/09 01:02:46;;;;;;;;;;;;;;;;;;5088280;28;19969;-44
2022/06/09 01:05:14;;;;;;;;;;;;;;;;;;5087262;28;19912;-44
2022/06/09 01:07:39;;;;;;;;;;;;;;;;;;5086472;28;20147;-43
2022/06/09 01:10:05;;;;;;;;;;;;;;;;;;5087650;28;19915;-44
2022/06/09 01:12:30;;;;;;;;;;;;;;;;;;5088312;28;20291;-43
2022/06/09 01:14:57;;;;;;;;;;;;;;;;;;5087334;28;20290;-43
2022/06/09 01:17:26;;;;;;;;;;;;;;;;;;5087646;28;19908;-43
2022/06/09 01:19:52;;;;;;;;;;;;;;;;;;5087226;28;19908;-43
2022/06/09 01:22:18;;;;;;;;;;;;;;;;;;5087295;28;20362;-43
2022/06/09 01:24:43;;;;;;;;;;;;;;;;;;5088272;28;19983;-44
2022/06/09 01:27:10;;;;;;;;;;;;;;;;;;5087701;28;20057;-43
2022/06/09 01:29:39;;;;;;;;;;;;;;;;;;5087415;28;19933;-43
2022/06/09 01:32:05;;;;;;;;;;;;;;;;;;5087993;28;19908;-43
2022/06/09 01:34:30;;;;;;;;;;;;;;;;;;5091014;28;19927;-44
2022/06/09 01:36:55;;;;;;;;;;;;;;;;;;5092128;28;19908;-43
2022/06/09 01:39:22;;;;;;;;;;;;;;;;;;5090691;28;19948;-43
2022/06/09 01:41:49;;;;;;;;;;;;;;;;;;5091008;28;19908;-43
2022/06/09 01:44:15;;;;;;;;;;;;;;;;;;5090615;28;19913;-43
2022/06/09 01:46:40;;;;;;;;;;;;;;;;;;5090249;28;19995;-43
2022/06/09 01:49:06;;;;;;;;;;;;;;;;;;5090686;28;19917;-43
2022/06/09 01:51:31;;;;;;;;;;;;;;;;;;5090970;28;19927;-43
2022/06/09 01:53:59;;;;;;;;;;;;;;;;;;5090693;28;19919;-43
2022/06/09 01:56:24;;;;;;;;;;;;;;;;;;5091199;28;19908;-43
2022/06/09 01:58:51;;;;;;;;;;;;;;;;;;5090992;28;20011;-43
2022/06/09 02:01:19;;;;;;;;;;;;;;;;;;5090643;28;20324;-44
2022/06/09 02:03:44;;;;;;;;;;;;;;;;;;5090634;28;19909;-44
2022/06/09 02:06:10;;;;;;;;;;;;;;;;;;5089126;28;19935;-43
2022/06/09 02:08:36;;;;;;;;;;;;;;;;;;5090021;28;19916;-43
2022/06/09 02:11:05;;;;;;;;;;;;;;;;;;5090654;28;19939;-44
2022/06/09 02:13:30;;;;;;;;;;;;;;;;;;5090257;28;19908;-44
2022/06/09 02:15:55;;;;;;;;;;;;;;;;;;5090247;28;19915;-43
2022/06/09 02:18:20;;;;;;;;;;;;;;;;;;5090926;28;19912;-44
2022/06/09 02:20:45;;;;;;;;;;;;;;;;;;5090438;28;19916;-43
2022/06/09 02:23:10;;;;;;;;;;;;;;;;;;5089977;28;20015;-44
2022/06/09 02:25:38;;;;;;;;;;;;;;;;;;5089831;28;19916;-43
2022/06/09 02:28:03;;;;;;;;;;;;;;;;;;5090802;28;19908;-44
2022/06/09 02:30:30;;;;;;;;;;;;;;;;;;5089902;28;19922;-43
2022/06/09 02:32:58;;;;;;;;;;;;;;;;;;5089690;28;19916;-43
2022/06/09 02:35:25;;;;;;;;;;;;;;;;;;5089728;28;19912;-44
2022/06/09 02:37:50;;;;;;;;;;;;;;;;;;5089952;28;19908;-43
2022/06/09 02:40:15;;;;;;;;;;;;;;;;;;5090814;28;20394;-44
2022/06/09 02:42:40;;;;;;;;;;;;;;;;;;5090371;28;19916;-43
2022/06/09 02:45:08;;;;;;;;;;;;;;;;;;5088640;28;20346;-44
2022/06/09 02:47:34;;;;;;;;;;;;;;;;;;5089697;28;19931;-44
2022/06/09 02:49:59;;;;;;;;;;;;;;;;;;5090562;28;19916;-43
2022/06/09 02:52:24;;;;;;;;;;;;;;;;;;5089627;28;19951;-43
2022/06/09 02:54:50;;;;;;;;;;;;;;;;;;5089707;28;19912;-43
2022/06/09 02:57:15;;;;;;;;;;;;;;;;;;5089745;28;20355;-43
2022/06/09 02:59:40;;;;;;;;;;;;;;;;;;5090006;28;19916;-44
2022/06/09 03:02:06;;;;;;;;;;;;;;;;;;5089209;28;19961;-44
2022/06/09 03:04:31;;;;;;;;;;;;;;;;;;5089084;28;20454;-43
2022/06/09 03:06:56;;;;;;;;;;;;;;;;;;5090271;28;19915;-43
2022/06/09 03:09:21;;;;;;;;;;;;;;;;;;5088573;28;19916;-43
2022/06/09 03:11:50;;;;;;;;;;;;;;;;;;5089274;28;19914;-44
2022/06/09 03:14:15;;;;;;;;;;;;;;;;;;5089439;28;19908;-44
2022/06/09 03:16:40;;;;;;;;;;;;;;;;;;5089526;28;20477;-43
2022/06/09 03:19:07;;;;;;;;;;;;;;;;;;5089650;28;19927;-43
2022/06/09 03:21:32;;;;;;;;;;;;;;;;;;5089102;28;20281;-44
2022/06/09 03:23:58;;;;;;;;;;;;;;;;;;5089035;28;20319;-44
2022/06/09 03:26:23;;;;;;;;;;;;;;;;;;5089903;28;19908;-43
2022/06/09 03:28:49;;;;;;;;;;;;;;;;;;5089300;28;19958;-44
2022/06/09 03:31:15;;;;;;;;;;;;;;;;;;5089311;28;19908;-43
2022/06/09 03:33:40;;;;;;;;;;;;;;;;;;5088337;28;20436;-44
2022/06/09 03:36:08;;;;;;;;;;;;;;;;;;5089532;28;19908;-43
2022/06/09 03:38:33;;;;;;;;;;;;;;;;;;5087283;28;19952;-44
2022/06/09 03:40:58;;;;;;;;;;;;;;;;;;5088727;28;20353;-43
2022/06/09 03:43:23;;;;;;;;;;;;;;;;;;5088568;28;19950;-44
2022/06/09 03:45:50;;;;;;;;;;;;;;;;;;5088782;28;19919;-43
2022/06/09 03:48:15;;;;;;;;;;;;;;;;;;5089518;28;19919;-43
2022/06/09 03:50:40;;;;;;;;;;;;;;;;;;5088592;28;19938;-44
2022/06/09 03:53:05;;;;;;;;;;;;;;;;;;5088568;28;20417;-43
2022/06/09 03:55:30;;;;;;;;;;;;;;;;;;5089155;28;19908;-43
2022/06/09 03:57:56;;;;;;;;;;;;;;;;;;5088865;28;19916;-43
2022/06/09 04:00:21;;;;;;;;;;;;;;;;;;5088788;28;19922;-44
2022/06/09 04:02:49;;;;;;;;;;;;;;;;;;5088799;28;19962;-43
2022/06/09 04:05:17;;;;;;;;;;;;;;;;;;5094038;28;19979;-44
2022/06/09 04:07:42;;;;;;;;;;;;;;;;;;5094965;28;19954;-44
2022/06/09 04:10:07;;;;;;;;;;;;;;;;;;5094788;28;19912;-44
2022/06/09 04:12:32;;;;;;;;;;;;;;;;;;5095053;28;20267;-43
2022/06/09 04:15:00;;;;;;;;;;;;;;;;;;5094887;28;20338;-43
2022/06/09 04:17:28;;;;;;;;;;;;;;;;;;5094822;28;19912;-44
2022/06/09 04:19:53;;;;;;;;;;;;;;;;;;5094824;28;19947;-44
2022/06/09 04:22:18;;;;;;;;;;;;;;;;;;5094769;28;19951;-43
2022/06/09 04:24:44;;;;;;;;;;;;;;;;;;5094977;28;19919;-44
2022/06/09 04:27:09;;;;;;;;;;;;;;;;;;5094864;28;20431;-44
2022/06/09 04:29:34;;;;;;;;;;;;;;;;;;5095029;28;19908;-44
2022/06/09 04:31:59;;;;;;;;;;;;;;;;;;5095031;28;19912;-44
2022/06/09 04:34:24;;;;;;;;;;;;;;;;;;5094599;28;19993;-45
2022/06/09 04:36:49;;;;;;;;;;;;;;;;;;5094485;28;19931;-43
2022/06/09 04:39:15;;;;;;;;;;;;;;;;;;5094535;28;19911;-43
2022/06/09 04:41:41;;;;;;;;;;;;;;;;;;5094418;28;19908;-44
2022/06/09 04:44:08;;;;;;;;;;;;;;;;;;5094967;28;19912;-44
2022/06/09 04:46:33;;;;;;;;;;;;;;;;;;5094512;28;19970;-44
2022/06/09 04:48:59;;;;;;;;;;;;;;;;;;5094398;28;20384;-43
2022/06/09 04:51:26;;;;;;;;;;;;;;;;;;5094859;28;19946;-44
2022/06/09 04:53:52;;;;;;;;;;;;;;;;;;5094421;28;20475;-43
2022/06/09 04:56:17;;;;;;;;;;;;;;;;;;5094399;28;19908;-44
2022/06/09 04:58:43;;;;;;;;;;;;;;;;;;5094362;28;19936;-43
2022/06/09 05:01:10;;;;;;;;;;;;;;;;;;5094361;28;19908;-43
2022/06/09 05:03:38;;;;;;;;;;;;;;;;;;5094218;28;20001;-45
2022/06/09 05:06:03;;;;;;;;;;;;;;;;;;5094333;28;20383;-44
2022/06/09 05:08:28;;;;;;;;;;;;;;;;;;5096783;28;19955;-44
2022/06/09 05:10:56;;;;;;;;;;;;;;;;;;5098194;28;19908;-44
2022/06/09 05:13:21;;;;;;;;;;;;;;;;;;5098141;28;19908;-43
2022/06/09 05:15:48;;;;;;;;;;;;;;;;;;5097964;28;19931;-44
2022/06/09 05:18:13;;;;;;;;;;;;;;;;;;5098094;28;19970;-44
2022/06/09 05:20:38;;;;;;;;;;;;;;;;;;5098400;28;19961;-43
2022/06/09 05:23:04;;;;;;;;;;;;;;;;;;5098057;28;19908;-44
2022/06/09 05:25:29;;;;;;;;;;;;;;;;;;5096759;28;19916;-44
2022/06/09 05:27:54;;;;;;;;;;;;;;;;;;5097435;28;19908;-43
2022/06/09 05:30:19;;;;;;;;;;;;;;;;;;5097363;28;20423;-44
2022/06/09 05:32:46;;;;;;;;;;;;;;;;;;5092146;28;20282;-43
2022/06/09 05:35:11;;;;;;;;;;;;;;;;;;5091418;28;19959;-43
2022/06/09 05:45:48;;;;;;;;;;;;;;;;;;5091525;28;21065;-46
2022/06/09 05:48:14;;;;;;;;;;;;;;;;;;5080687;28;19944;-45
2022/06/09 05:50:39;;;;;;;;;;;;;;;;;;5090021;28;19990;-47
2022/06/09 05:53:05;;;;;;;;;;;;;;;;;;5094291;28;19912;-46
2022/06/09 05:55:30;;;;;;;;;;;;;;;;;;5087054;28;20298;-46
2022/06/09 05:57:55;;;;;;;;;;;;;;;;;;5076966;28;19927;-47
2022/06/09 06:00:20;;;;;;;;;;;;;;;;;;5081379;28;20014;-46
2022/06/09 06:02:46;;;;;;;;;;;;;;;;;;5069857;28;22733;-46
2022/06/09 06:06:33;;;;;;;;;;;;;;;;;;5071200;28;19924;-46
2022/06/09 06:07:56;;;;;;;;;;;;;;;;;;5066727;28;20370;-47
2022/06/09 06:10:21;;;;;;;;;;;;;;;;;;5070357;28;20006;-46
2022/06/09 06:12:46;;;;;;;;;;;;;;;;;;5052993;28;20015;-47
2022/06/09 06:15:11;;;;;;;;;;;;;;;;;;5040858;28;20060;-48
2022/06/09 06:17:37;;;;;;;;;;;;;;;;;;5010460;28;19927;-47
2022/06/09 06:20:02;;;;;;;;;;;;;;;;;;4936902;28;19920;-46
2022/06/09 06:22:27;;;;;;;;;;;;;;;;;;4883783;28;21448;-46
2022/06/09 06:24:52;;;;;;;;;;;;;;;;;;4800874;28;20106;-45
2022/06/09 06:27:17;;;;;;;;;;;;;;;;;;4713714;28;41390;-48
2022/06/09 06:29:42;;;;;;;;;;;;;;;;;;4630335;28;20342;-46
2022/06/09 06:32:07;;;;;;;;;;;;;;;;;;4697379;28;20686;-45
2022/06/09 06:34:34;;;;;;;;;;;;;;;;;;4753286;28;20939;-45
2022/06/09 06:36:59;;;;;;;;;;;;;;;;;;4783179;28;22275;-47
2022/06/09 06:39:24;;;;;;;;;;;;;;;;;;4833160;28;33381;-45
2022/06/09 06:41:49;;;;;;;;;;;;;;;;;;4860567;28;26739;-45
2022/06/09 06:44:14;;;;;;;;;;;;;;;;;;4910405;28;20702;-45
2022/06/09 06:46:39;;;;;;;;;;;;;;;;;;4898263;28;21234;-45
2022/06/09 06:49:05;;;;;;;;;;;;;;;;;;4907400;28;20004;-44
2022/06/09 06:51:30;;;;;;;;;;;;;;;;;;4878495;28;25811;-45
2022/06/09 06:53:55;;;;;;;;;;;;;;;;;;4870757;28;28295;-46
2022/06/09 06:56:20;;;;;;;;;;;;;;;;;;4873153;28;29930;-46
2022/06/09 06:58:45;;;;;;;;;;;;;;;;;;4856657;28;20652;-46
2022/06/09 07:01:10;;;;;;;;;;;;;;;;;;4840310;28;19931;-45
2022/06/09 07:03:36;;;;;;;;;;;;;;;;;;4830079;28;26537;-46
2022/06/09 07:06:01;;;;;;;;;;;;;;;;;;4833367;28;24064;-47
2022/06/09 07:08:26;;;;;;;;;;;;;;;;;;4813351;28;35197;-47
2022/06/09 07:10:51;;;;;;;;;;;;;;;;;;4764440;28;25676;-46
2022/06/09 07:13:16;;;;;;;;;;;;;;;;;;4782204;28;23460;-45
2022/06/09 07:15:44;;;;;;;;;;;;;;;;;;4725407;28;33567;-45
2022/06/09 07:18:09;;;;;;;;;;;;;;;;;;4673211;28;39024;-45
2022/06/09 07:20:34;;;;;;;;;;;;;;;;;;4576191;28;29200;-47
2022/06/09 07:22:59;;;;;;;;;;;;;;;;;;4392716;28;24813;-47
2022/06/09 07:25:25;;;;;;;;;;;;;;;;;;4413449;28;25056;-47
2022/06/09 07:27:51;;;;;;;;;;;;;;;;;;4547719;28;45720;-47
2022/06/09 07:30:16;;;;;;;;;;;;;;;;;;4610747;28;33078;-45
2022/06/09 07:32:41;;;;;;;;;;;;;;;;;;4726317;28;34515;-47
2022/06/09 07:35:06;;;;;;;;;;;;;;;;;;4757373;28;34808;-47
2022/06/09 07:37:31;;;;;;;;;;;;;;;;;;4707847;28;22122;-46
2022/06/09 07:39:59;;;;;;;;;;;;;;;;;;4742708;28;44803;-45
2022/06/09 07:42:26;;;;;;;;;;;;;;;;;;4748543;28;40113;-46
2022/06/09 07:44:51;;;;;;;;;;;;;;;;;;4739108;28;35994;-47
2022/06/09 07:47:16;;;;;;;;;;;;;;;;;;4738881;28;27036;-47
2022/06/09 07:49:41;;;;;;;;;;;;;;;;;;4752680;28;31508;-46
2022/06/09 07:52:06;;;;;;;;;;;;;;;;;;4797340;28;37554;-47
2022/06/09 07:54:32;;;;;;;;;;;;;;;;;;4734185;28;41485;-47
2022/06/09 07:56:57;;;;;;;;;;;;;;;;;;4739311;28;30038;-49
2022/06/09 07:59:22;;;;;;;;;;;;;;;;;;4740586;28;34246;-45
2022/06/09 08:01:47;;;;;;;;;;;;;;;;;;4717051;28;30248;-49
2022/06/09 08:04:12;;;;;;;;;;;;;;;;;;4778300;28;23188;-45
2022/06/09 08:06:38;;;;;;;;;;;;;;;;;;4716500;28;34531;-46
2022/06/09 08:09:03;;;;;;;;;;;;;;;;;;4637590;28;37752;-47
2022/06/09 08:11:28;;;;;;;;;;;;;;;;;;4509155;28;21895;-49
2022/06/09 08:13:55;;;;;;;;;;;;;;;;;;4604449;28;22427;-45
2022/06/09 08:16:21;;;;;;;;;;;;;;;;;;4683087;28;21174;-46
2022/06/09 08:18:46;;;;;;;;;;;;;;;;;;4743410;28;21904;-47
2022/06/09 08:21:11;;;;;;;;;;;;;;;;;;4762349;28;20051;-45
2022/06/09 08:23:36;;;;;;;;;;;;;;;;;;4775624;28;22777;-47
2022/06/09 08:26:05;;;;;;;;;;;;;;;;;;4759899;28;20771;-49
2022/06/09 08:28:30;;;;;;;;;;;;;;;;;;4582029;28;20746;-47
2022/06/09 08:30:55;;;;;;;;;;;;;;;;;;4571085;28;21181;-46
2022/06/09 08:33:20;;;;;;;;;;;;;;;;;;4483526;22;23654;-47
2022/06/09 08:35:45;;;;;;;;;;;;;;;;;;4694486;28;22310;-47
2022/06/09 08:38:11;;;;;;;;;;;;;;;;;;4771442;28;22378;-49
2022/06/09 08:40:36;;;;;;;;;;;;;;;;;;4816634;28;20684;-49
2022/06/09 08:43:01;;;;;;;;;;;;;;;;;;4783331;28;22345;-46
2022/06/09 08:45:26;;;;;;;;;;;;;;;;;;4806578;28;19925;-47
2022/06/09 08:47:51;;;;;;;;;;;;;;;;;;4805038;28;22462;-47
2022/06/09 08:50:16;;;;;;;;;;;;;;;;;;4820600;28;21224;-46
2022/06/09 08:52:42;;;;;;;;;;;;;;;;;;4830175;28;20051;-47
2022/06/09 08:55:07;;;;;;;;;;;;;;;;;;4822052;28;19990;-49
2022/06/09 08:57:32;;;;;;;;;;;;;;;;;;4819801;28;19979;-48
2022/06/09 08:59:57;;;;;;;;;;;;;;;;;;4805706;28;20707;-46
2022/06/09 09:02:22;;;;;;;;;;;;;;;;;;4798855;28;20386;-47
2022/06/09 09:04:48;;;;;;;;;;;;;;;;;;4800369;28;21326;-48
2022/06/09 09:07:13;;;;;;;;;;;;;;;;;;4754592;28;20016;-46
2022/06/09 09:09:38;;;;;;;;;;;;;;;;;;4829206;28;20372;-48
2022/06/09 09:12:03;;;;;;;;;;;;;;;;;;4788224;28;20051;-47
2022/06/09 09:14:28;;;;;;;;;;;;;;;;;;4722787;28;24116;-46
2022/06/09 09:16:53;;;;;;;;;;;;;;;;;;4716609;28;20398;-47
2022/06/09 09:19:19;;;;;;;;;;;;;;;;;;4712841;28;24953;-47
2022/06/09 09:21:44;;;;;;;;;;;;;;;;;;4577007;28;21235;-46
2022/06/09 09:24:09;;;;;;;;;;;;;;;;;;4486620;28;44708;-48
2022/06/09 09:26:34;;;;;;;;;;;;;;;;;;4640055;28;20863;-47
2022/06/09 09:29:00;;;;;;;;;;;;;;;;;;4676225;28;28124;-48
2022/06/09 09:31:25;;;;;;;;;;;;;;;;;;4782775;28;21143;-46
2022/06/09 09:33:50;;;;;;;;;;;;;;;;;;4778790;28;27210;-47
2022/06/09 09:36:15;;;;;;;;;;;;;;;;;;4819431;28;28147;-49
2022/06/09 09:38:40;;;;;;;;;;;;;;;;;;4809739;28;30826;-47
2022/06/09 09:41:05;;;;;;;;;;;;;;;;;;4801800;28;25812;-46
2022/06/09 09:43:30;;;;;;;;;;;;;;;;;;4834996;28;28806;-46
2022/06/09 09:45:56;;;;;;;;;;;;;;;;;;4830187;28;22099;-46
2022/06/09 09:48:21;;;;;;;;;;;;;;;;;;4825979;28;22979;-46
2022/06/09 09:50:46;;;;;;;;;;;;;;;;;;4790751;28;20586;-49
2022/06/09 09:53:11;;;;;;;;;;;;;;;;;;4818958;28;20664;-47
2022/06/09 09:55:36;;;;;;;;;;;;;;;;;;4825971;28;20042;-47
2022/06/09 09:58:01;;;;;;;;;;;;;;;;;;4837439;28;20021;-47
2022/06/09 10:00:26;;;;;;;;;;;;;;;;;;4848244;28;19920;-47
2022/06/09 10:08:39;;;;;;;;;;;;;;;;;;4837870;28;19927;-49
2022/06/09 10:11:53;;;;;;;;;;;;;;;;;;4723877;28;22213;-47
2022/06/09 10:13:49;;;;;;;;;;;;;;;;;;4655477;28;21982;-46
2022/06/09 10:16:14;;;;;;;;;;;;;;;;;;4703643;28;21046;-47
2022/06/09 10:18:39;;;;;;;;;;;;;;;;;;4723142;28;24808;-47
2022/06/09 10:21:04;;;;;;;;;;;;;;;;;;4753325;28;19924;-48
2022/06/09 10:23:29;;;;;;;;;;;;;;;;;;4782177;28;29821;-45
2022/06/09 10:25:54;;;;;;;;;;;;;;;;;;4760547;28;21503;-47
2022/06/09 10:28:20;;;;;;;;;;;;;;;;;;4822138;28;19963;-47
2022/06/09 10:30:45;;;;;;;;;;;;;;;;;;4814253;28;24860;-49
2022/06/09 10:33:10;;;;;;;;;;;;;;;;;;4791485;28;20106;-49
2022/06/09 10:35:35;;;;;;;;;;;;;;;;;;4775483;28;21288;-46
2022/06/09 10:38:02;;;;;;;;;;;;;;;;;;4677986;28;24325;-47
2022/06/09 10:40:27;;;;;;;;;;;;;;;;;;4628707;28;22055;-46
2022/06/09 10:42:52;;;;;;;;;;;;;;;;;;4700161;28;20772;-49
2022/06/09 10:45:18;;;;;;;;;;;;;;;;;;4782638;28;24774;-46
2022/06/09 10:55:55;;;;;;;;;;;;;;;;;;4804211;28;24811;-45
2022/06/09 10:58:20;;;;;;;;;;;;;;;;;;4802372;28;19920;-45
2022/06/09 11:00:45;;;;;;;;;;;;;;;;;;4782511;28;21460;-47
2022/06/09 11:03:10;;;;;;;;;;;;;;;;;;4803200;28;25651;-46
2022/06/09 11:05:35;;;;;;;;;;;;;;;;;;4743295;28;22869;-46
2022/06/09 11:08:01;;;;;;;;;;;;;;;;;;4814249;28;20123;-46
2022/06/09 11:10:26;;;;;;;;;;;;;;;;;;4798187;28;21525;-45
2022/06/09 11:12:51;;;;;;;;;;;;;;;;;;4803779;28;25947;-46
2022/06/09 11:15:16;;;;;;;;;;;;;;;;;;4801016;28;22432;-46
2022/06/09 11:17:41;;;;;;;;;;;;;;;;;;4805779;28;21219;-46
2022/06/09 11:20:06;;;;;;;;;;;;;;;;;;4810091;28;20798;-45
2022/06/09 11:22:31;;;;;;;;;;;;;;;;;;4775072;28;20755;-46
2022/06/09 11:24:56;;;;;;;;;;;;;;;;;;4775454;28;21274;-45
2022/06/09 11:27:22;;;;;;;;;;;;;;;;;;4753977;28;20896;-46
2022/06/09 11:29:47;;;;;;;;;;;;;;;;;;4684369;28;43295;-47
2022/06/09 11:32:12;;;;;;;;;;;;;;;;;;4561108;28;21042;-46
2022/06/09 11:34:37;;;;;;;;;;;;;;;;;;4591962;28;24542;-47
2022/06/09 11:37:04;;;;;;;;;;;;;;;;;;4651179;28;25092;-47
2022/06/09 11:39:29;;;;;;;;;;;;;;;;;;4755102;28;29033;-46
2022/06/09 11:41:55;;;;;;;;;;;;;;;;;;4766229;28;22509;-45
2022/06/09 11:44:20;;;;;;;;;;;;;;;;;;4814860;28;22897;-45
2022/06/09 11:46:45;;;;;;;;;;;;;;;;;;4808898;28;26984;-45
2022/06/09 11:49:10;;;;;;;;;;;;;;;;;;4801389;28;22503;-46
2022/06/09 11:51:35;;;;;;;;;;;;;;;;;;4838434;28;21827;-46
2022/06/09 11:54:01;;;;;;;;;;;;;;;;;;4845421;28;21126;-47
2022/06/09 11:56:43;;;;;;;;;;;;;;;;;;4830817;28;20609;-46
2022/06/09 11:59:08;;;;;;;;;;;;;;;;;;4846099;28;28899;-45
2022/06/09 12:01:33;;;;;;;;;;;;;;;;;;4828438;28;34082;-44
2022/06/09 12:03:58;;;;;;;;;;;;;;;;;;4826289;28;30684;-45
2022/06/09 12:06:23;;;;;;;;;;;;;;;;;;4828467;28;33390;-45
2022/06/09 12:08:49;;;;;;;;;;;;;;;;;;4823324;28;31103;-43
2022/06/09 12:11:14;;;;;;;;;;;;;;;;;;4812611;28;32913;-46
2022/06/09 12:13:40;;;;;;;;;;;;;;;;;;4823928;28;19924;-45
2022/06/09 12:16:05;;;;;;;;;;;;;;;;;;4799176;28;21620;-45
2022/06/09 12:18:30;;;;;;;;;;;;;;;;;;4792403;28;20061;-45
2022/06/09 12:20:56;;;;;;;;;;;;;;;;;;4715847;28;22236;-48
2022/06/09 12:23:21;;;;;;;;;;;;;;;;;;4592932;28;22145;-47
2022/06/09 12:25:46;;;;;;;;;;;;;;;;;;4712801;28;19930;-47
2022/06/09 12:28:11;;;;;;;;;;;;;;;;;;4762449;28;20072;-46
2022/06/09 12:30:37;;;;;;;;;;;;;;;;;;4785312;28;22787;-45
2022/06/09 12:33:02;;;;;;;;;;;;;;;;;;4852881;28;20808;-49
2022/06/09 12:35:27;;;;;;;;;;;;;;;;;;4905081;28;19924;-46
2022/06/09 12:37:53;;;;;;;;;;;;;;;;;;4898446;28;19925;-45
2022/06/09 12:40:18;;;;;;;;;;;;;;;;;;4897222;28;20082;-45
2022/06/09 12:42:43;;;;;;;;;;;;;;;;;;4897598;28;20458;-46
2022/06/09 12:45:08;;;;;;;;;;;;;;;;;;4905239;28;20378;-46
2022/06/09 12:47:33;;;;;;;;;;;;;;;;;;4851677;28;19920;-46
2022/06/09 12:49:58;;;;;;;;;;;;;;;;;;4861430;28;20987;-46
2022/06/09 12:52:24;;;;;;;;;;;;;;;;;;4871638;28;20552;-45
2022/06/09 12:54:49;;;;;;;;;;;;;;;;;;4874713;28;19920;-47
2022/06/09 12:57:14;;;;;;;;;;;;;;;;;;4840718;28;19917;-46
2022/06/09 12:59:39;;;;;;;;;;;;;;;;;;4869419;28;19920;-46
2022/06/09 13:02:04;;;;;;;;;;;;;;;;;;4849729;28;19916;-45
2022/06/09 13:04:30;;;;;;;;;;;;;;;;;;4878509;28;29143;-44
2022/06/09 13:06:56;;;;;;;;;;;;;;;;;;4861831;28;19979;-47
2022/06/09 13:09:21;;;;;;;;;;;;;;;;;;4830737;28;19924;-45
2022/06/09 13:14:30;;;;;;;;;;;;;;;;;;4711932;28;22434;-45
2022/06/09 13:16:55;;;;;;;;;;;;;;;;;;4798995;28;19958;-45
2022/06/09 13:19:21;;;;;;;;;;;;;;;;;;4829202;28;19967;-46
2022/06/09 13:21:46;;;;;;;;;;;;;;;;;;4875444;28;20634;-46
2022/06/09 13:24:11;;;;;;;;;;;;;;;;;;4915170;28;20417;-46
2022/06/09 13:26:36;;;;;;;;;;;;;;;;;;4902902;28;22469;-46
2022/06/09 13:29:02;;;;;;;;;;;;;;;;;;4931695;28;19931;-46
2022/06/09 13:31:27;;;;;;;;;;;;;;;;;;4930358;28;19925;-45
2022/06/09 13:33:52;;;;;;;;;;;;;;;;;;4923431;28;20437;-46
2022/06/09 13:36:17;;;;;;;;;;;;;;;;;;4948655;28;20513;-46
2022/06/09 13:38:42;;;;;;;;;;;;;;;;;;4928517;28;19920;-46
2022/06/09 13:41:08;;;;;;;;;;;;;;;;;;4959364;28;22473;-45
2022/06/09 13:43:33;;;;;;;;;;;;;;;;;;4972922;28;19921;-46
2022/06/09 13:45:58;;;;;;;;;;;;;;;;;;4975991;28;20403;-46
2022/06/09 13:48:29;;;;;;;;;;;;;;;;;;4968879;28;20770;-47
2022/06/09 13:50:54;;;;;;;;;;;;;;;;;;4987231;28;19921;-45
2022/06/09 13:53:20;;;;;;;;;;;;;;;;;;4979938;28;20638;-46
2022/06/09 13:55:45;;;;;;;;;;;;;;;;;;4935008;28;45617;-45
2022/06/09 13:58:10;;;;;;;;;;;;;;;;;;4946437;28;19920;-45
2022/06/09 14:00:35;;;;;;;;;;;;;;;;;;4906013;28;19920;-46
2022/06/09 14:03:00;;;;;;;;;;;;;;;;;;4883296;28;43757;-46
2022/06/09 14:05:25;;;;;;;;;;;;;;;;;;4878866;28;22041;-45
2022/06/09 14:07:50;;;;;;;;;;;;;;;;;;4927233;28;19921;-45
2022/06/09 14:10:16;;;;;;;;;;;;;;;;;;4963828;28;21624;-45
2022/06/09 14:12:41;;;;;;;;;;;;;;;;;;4987653;28;22486;-45
2022/06/09 14:15:08;;;;;;;;;;;;;;;;;;4979236;28;20583;-44
2022/06/09 14:17:33;;;;;;;;;;;;;;;;;;4971617;28;19920;-45
2022/06/09 14:19:58;;;;;;;;;;;;;;;;;;4970662;28;20682;-45
2022/06/09 14:22:23;;;;;;;;;;;;;;;;;;4929431;28;19921;-44
2022/06/09 14:24:49;;;;;;;;;;;;;;;;;;4909284;28;20534;-47
2022/06/09 14:27:14;;;;;;;;;;;;;;;;;;4871349;28;20438;-46
2022/06/09 14:29:39;;;;;;;;;;;;;;;;;;4852753;28;20013;-45
2022/06/09 14:32:04;;;;;;;;;;;;;;;;;;4845570;28;20662;-45
2022/06/09 14:34:29;;;;;;;;;;;;;;;;;;4802077;28;20524;-45
2022/06/09 14:36:54;;;;;;;;;;;;;;;;;;4817505;28;21971;-45
2022/06/09 14:39:19;;;;;;;;;;;;;;;;;;4855007;28;19921;-45
2022/06/09 14:41:44;;;;;;;;;;;;;;;;;;4904086;28;20742;-45
2022/06/09 14:44:10;;;;;;;;;;;;;;;;;;4932678;28;19987;-45
2022/06/09 14:46:35;;;;;;;;;;;;;;;;;;4915066;28;21416;-45
2022/06/09 14:49:00;;;;;;;;;;;;;;;;;;4896373;28;20056;-45
2022/06/09 14:51:25;;;;;;;;;;;;;;;;;;4872120;28;21447;-44
2022/06/09 14:53:51;;;;;;;;;;;;;;;;;;4840945;28;19954;-46
2022/06/09 14:56:16;;;;;;;;;;;;;;;;;;4891669;28;19927;-46
2022/06/09 14:58:41;;;;;;;;;;;;;;;;;;4898499;28;20670;-46
2022/06/09 15:01:06;;;;;;;;;;;;;;;;;;4916834;28;19962;-45
2022/06/09 15:03:31;;;;;;;;;;;;;;;;;;4931877;28;19921;-46
2022/06/09 15:05:56;;;;;;;;;;;;;;;;;;4934522;28;19931;-45
2022/06/09 15:08:21;;;;;;;;;;;;;;;;;;4953194;28;21451;-45
2022/06/09 15:10:46;;;;;;;;;;;;;;;;;;4969348;28;19917;-44
2022/06/09 15:13:12;;;;;;;;;;;;;;;;;;4978208;28;19927;-45
2022/06/09 15:15:37;;;;;;;;;;;;;;;;;;4993914;28;19979;-45
2022/06/09 15:18:06;;;;;;;;;;;;;;;;;;4993284;28;20616;-45
2022/06/09 15:20:31;;;;;;;;;;;;;;;;;;4982742;28;19947;-45
2022/06/09 15:22:56;;;;;;;;;;;;;;;;;;4999820;28;19924;-46
2022/06/09 15:25:21;;;;;;;;;;;;;;;;;;5006131;28;19924;-47
2022/06/09 15:27:47;;;;;;;;;;;;;;;;;;5002602;28;19936;-47
2022/06/09 15:30:12;;;;;;;;;;;;;;;;;;5014308;28;19946;-45
2022/06/09 15:32:37;;;;;;;;;;;;;;;;;;5029510;28;19916;-45
2022/06/09 15:35:02;;;;;;;;;;;;;;;;;;5032788;28;20027;-45
2022/06/09 15:37:27;;;;;;;;;;;;;;;;;;5029894;28;19920;-44
2022/06/09 15:39:52;;;;;;;;;;;;;;;;;;5042232;28;19912;-46
2022/06/09 15:42:17;;;;;;;;;;;;;;;;;;5053562;28;19966;-47
2022/06/09 15:44:43;;;;;;;;;;;;;;;;;;5046340;28;21344;-46
2022/06/09 15:47:08;;;;;;;;;;;;;;;;;;5042881;28;19927;-46
2022/06/09 15:49:33;;;;;;;;;;;;;;;;;;5061295;28;19916;-45
2022/06/09 15:51:58;;;;;;;;;;;;;;;;;;5064249;28;20357;-45
2022/06/09 15:54:23;;;;;;;;;;;;;;;;;;5060936;28;19955;-46
2022/06/09 15:56:49;;;;;;;;;;;;;;;;;;5065045;28;20291;-46
2022/06/09 15:59:14;;;;;;;;;;;;;;;;;;5064865;28;20314;-45
2022/06/09 16:01:40;;;;;;;;;;;;;;;;;;5070303;28;20371;-45
2022/06/09 16:04:05;;;;;;;;;;;;;;;;;;5057148;28;20355;-45
2022/06/09 16:06:31;;;;;;;;;;;;;;;;;;5051263;28;19923;-46
2022/06/09 16:08:56;;;;;;;;;;;;;;;;;;5047489;28;19921;-44
2022/06/09 16:11:24;;;;;;;;;;;;;;;;;;5056996;28;19998;-43
2022/06/09 16:13:49;;;;;;;;;;;;;;;;;;5064077;28;19913;-44
2022/06/09 16:16:14;;;;;;;;;;;;;;;;;;5064288;28;19959;-43
2022/06/09 16:18:40;;;;;;;;;;;;;;;;;;5069681;28;19991;-43
2022/06/09 16:21:05;;;;;;;;;;;;;;;;;;5063725;28;19913;-43
2022/06/09 16:23:31;;;;;;;;;;;;;;;;;;5066315;28;19958;-44
2022/06/09 16:25:56;;;;;;;;;;;;;;;;;;5066194;28;19954;-43
2022/06/09 16:28:22;;;;;;;;;;;;;;;;;;5067157;28;19948;-43
2022/06/09 16:30:47;;;;;;;;;;;;;;;;;;5066517;28;19935;-43
2022/06/09 16:33:17;;;;;;;;;;;;;;;;;;5064319;28;19916;-43
2022/06/09 16:35:42;;;;;;;;;;;;;;;;;;5064569;28;19917;-43
2022/06/09 16:38:07;;;;;;;;;;;;;;;;;;5069200;28;19913;-43
2022/06/09 16:40:36;;;;;;;;;;;;;;;;;;5072342;28;19947;-43
2022/06/09 16:43:02;;;;;;;;;;;;;;;;;;5073452;28;19915;-44
2022/06/09 16:45:28;;;;;;;;;;;;;;;;;;5073160;28;20017;-43
2022/06/09 16:47:53;;;;;;;;;;;;;;;;;;5073909;28;20010;-44
2022/06/09 16:50:18;;;;;;;;;;;;;;;;;;5073759;28;19964;-43
2022/06/09 16:52:46;;;;;;;;;;;;;;;;;;5070930;28;19921;-43
2022/06/09 16:55:11;;;;;;;;;;;;;;;;;;5072511;28;20450;-43
2022/06/09 16:57:37;;;;;;;;;;;;;;;;;;5072995;28;19963;-45
2022/06/09 17:00:02;;;;;;;;;;;;;;;;;;5071575;28;19950;-43